createdAt,value
2022-12-18T00:02:23.116Z,15.80
2022-12-18T00:04:51.052Z,17.30
2022-12-18T00:07:18.760Z,16.30
2022-12-18T00:09:46.682Z,15.60
2022-12-18T00:14:43.507Z,16.80
2022-12-18T00:17:11.177Z,16.30
2022-12-18T00:19:38.799Z,17.20
2022-12-18T00:22:07.385Z,15.00
2022-12-18T00:24:34.977Z,16.20
2022-12-18T00:27:02.610Z,16.00
2022-12-18T00:29:30.668Z,16.80
2022-12-18T00:31:58.805Z,16.40
2022-12-18T00:34:26.589Z,16.80
2022-12-18T00:36:54.578Z,15.20
2022-12-18T00:39:22.409Z,15.10
2022-12-18T00:42:08.971Z,16.20
2022-12-18T00:44:36.565Z,17.20
2022-12-18T00:47:04.269Z,15.80
2022-12-18T00:49:32.395Z,15.40
2022-12-18T00:52:00.511Z,15.70
2022-12-18T00:54:28.536Z,16.50
2022-12-18T00:56:56.345Z,15.80
2022-12-18T00:59:24.020Z,15.30
2022-12-18T01:01:51.798Z,14.70
2022-12-18T01:04:20.043Z,14.80
2022-12-18T01:06:47.713Z,14.30
2022-12-18T01:09:15.674Z,14.80
2022-12-18T01:11:43.538Z,14.60
2022-12-18T01:14:11.185Z,14.50
2022-12-18T01:16:39.009Z,15.20
2022-12-18T01:19:07.109Z,16.00
2022-12-18T01:21:34.798Z,13.70
2022-12-18T01:24:02.781Z,15.50
2022-12-18T01:26:30.989Z,14.60
2022-12-18T01:28:59.209Z,15.40
2022-12-18T01:31:28.084Z,14.90
2022-12-18T01:33:56.115Z,13.40
2022-12-18T01:36:41.892Z,13.60
2022-12-18T01:39:12.483Z,15.80
2022-12-18T01:41:59.599Z,15.70
2022-12-18T01:44:46.236Z,15.40
2022-12-18T01:49:41.390Z,11.50
2022-12-18T01:52:09.393Z,12.10
2022-12-18T01:54:36.963Z,12.80
2022-12-18T01:57:04.712Z,14.20
2022-12-18T01:59:33.827Z,12.40
2022-12-18T02:02:01.692Z,12.10
2022-12-18T02:04:29.859Z,13.50
2022-12-18T02:07:11.416Z,13.40
2022-12-18T02:09:50.263Z,13.30
2022-12-18T02:12:21.000Z,12.50
2022-12-18T02:15:09.742Z,13.30
2022-12-18T02:17:37.441Z,12.40
2022-12-18T02:20:14.941Z,13.20
2022-12-18T02:22:45.953Z,12.90
2022-12-18T02:25:13.642Z,12.40
2022-12-18T02:27:42.533Z,12.80
2022-12-18T02:30:10.704Z,12.80
2022-12-18T02:32:43.152Z,13.50
2022-12-18T02:35:15.091Z,14.00
2022-12-18T02:37:44.627Z,14.60
2022-12-18T02:40:13.928Z,13.80
2022-12-18T02:42:41.695Z,13.10
2022-12-18T02:45:09.595Z,12.30
2022-12-18T02:47:39.026Z,12.30
2022-12-18T02:50:28.245Z,12.60
2022-12-18T02:53:07.525Z,12.30
2022-12-18T02:55:54.231Z,11.80
2022-12-18T02:58:28.071Z,11.30
2022-12-18T03:01:04.844Z,12.40
2022-12-18T03:06:05.561Z,11.40
2022-12-18T03:08:37.065Z,12.00
2022-12-18T03:11:09.896Z,11.80
2022-12-18T03:13:58.804Z,12.20
2022-12-18T03:16:28.577Z,11.70
2022-12-18T03:18:59.011Z,13.40
2022-12-18T03:21:29.288Z,12.00
2022-12-18T03:23:56.984Z,13.80
2022-12-18T03:26:26.678Z,12.80
2022-12-18T03:29:01.100Z,12.60
2022-12-18T03:31:29.527Z,13.10
2022-12-18T03:33:59.902Z,13.70
2022-12-18T03:36:27.970Z,12.70
2022-12-18T03:38:55.619Z,12.70
2022-12-18T03:41:26.368Z,12.70
2022-12-18T03:44:03.328Z,12.10
2022-12-18T03:46:43.104Z,12.90
2022-12-18T03:49:29.284Z,11.60
2022-12-18T03:51:59.925Z,11.60
2022-12-18T03:54:27.984Z,12.70
2022-12-18T03:57:08.028Z,11.80
2022-12-18T03:59:36.516Z,12.10
2022-12-18T04:02:05.860Z,12.50
2022-12-18T04:04:34.638Z,12.90
2022-12-18T04:07:02.773Z,12.40
2022-12-18T04:09:31.458Z,11.60
2022-12-18T04:11:59.128Z,12.70
2022-12-18T04:14:26.730Z,13.00
2022-12-18T04:16:54.335Z,12.60
2022-12-18T04:19:22.009Z,13.10
2022-12-18T04:21:49.571Z,12.70
2022-12-18T04:24:17.219Z,11.90
2022-12-18T04:26:44.807Z,11.30
2022-12-18T04:29:12.746Z,10.90
2022-12-18T04:31:40.405Z,10.70
2022-12-18T04:34:08.179Z,10.30
2022-12-18T04:36:36.034Z,10.50
2022-12-18T04:39:03.751Z,11.30
2022-12-18T04:41:31.440Z,11.80
2022-12-18T04:43:59.128Z,10.80
2022-12-18T04:46:26.714Z,10.30
2022-12-18T04:48:54.540Z,11.20
2022-12-18T04:51:26.420Z,11.80
2022-12-18T04:53:54.896Z,11.50
2022-12-18T04:56:23.154Z,12.20
2022-12-18T04:58:50.850Z,11.10
2022-12-18T05:01:19.044Z,11.30
2022-12-18T05:03:46.873Z,11.20
2022-12-18T05:06:14.822Z,11.20
2022-12-18T05:08:42.712Z,11.80
2022-12-18T05:11:11.774Z,12.80
2022-12-18T05:13:39.923Z,11.40
2022-12-18T05:16:08.785Z,11.80
2022-12-18T05:18:37.020Z,11.70
2022-12-18T05:21:04.747Z,11.50
2022-12-18T05:23:32.375Z,12.00
2022-12-18T05:26:04.917Z,12.00
2022-12-18T05:28:33.468Z,11.80
2022-12-18T05:31:02.208Z,11.90
2022-12-18T05:33:31.686Z,13.10
2022-12-18T05:36:00.984Z,12.50
2022-12-18T05:38:30.077Z,12.80
2022-12-18T05:40:57.942Z,13.70
2022-12-18T05:43:27.246Z,12.80
2022-12-18T05:45:55.422Z,13.50
2022-12-18T05:48:23.200Z,12.60
2022-12-18T05:50:51.657Z,12.30
2022-12-18T05:53:20.608Z,10.90
2022-12-18T05:55:48.822Z,12.10
2022-12-18T05:58:16.699Z,11.40
2022-12-18T06:00:45.961Z,11.30
2022-12-18T06:03:14.525Z,11.90
2022-12-18T06:05:43.871Z,12.30
2022-12-18T06:08:12.163Z,12.30
2022-12-18T06:10:40.165Z,11.30
2022-12-18T06:13:08.284Z,12.20
2022-12-18T06:15:39.325Z,12.20
2022-12-18T06:18:07.089Z,12.40
2022-12-18T06:20:37.540Z,11.60
2022-12-18T06:23:05.156Z,11.50
2022-12-18T06:25:34.164Z,11.90
2022-12-18T06:28:01.809Z,11.90
2022-12-18T06:30:29.398Z,11.90
2022-12-18T06:32:57.738Z,10.90
2022-12-18T06:35:25.390Z,11.40
2022-12-18T06:37:53.185Z,10.90
2022-12-18T06:40:21.093Z,11.00
2022-12-18T06:42:48.740Z,12.00
2022-12-18T06:45:16.371Z,11.30
2022-12-18T06:47:44.521Z,10.60
2022-12-18T06:50:12.507Z,10.10
2022-12-18T06:52:41.301Z,10.40
2022-12-18T06:55:09.354Z,11.50
2022-12-18T06:57:37.550Z,17.40
2022-12-18T07:00:06.839Z,14.20
2022-12-18T07:02:34.790Z,41.00
2022-12-18T07:05:06.182Z,29.80
2022-12-18T07:07:38.405Z,30.50
2022-12-18T07:10:06.437Z,21.60
2022-12-18T07:12:34.362Z,14.30
2022-12-18T07:15:01.988Z,11.60
2022-12-18T07:17:30.712Z,11.00
2022-12-18T07:19:58.472Z,11.50
2022-12-18T07:22:27.264Z,11.70
2022-12-18T07:24:55.004Z,9.50
2022-12-18T07:27:23.192Z,10.00
2022-12-18T07:29:50.858Z,9.70
2022-12-18T07:32:18.718Z,10.00
2022-12-18T07:34:46.693Z,9.50
2022-12-18T07:37:15.064Z,9.50
2022-12-18T07:39:43.247Z,10.10
2022-12-18T07:42:38.251Z,13.70
2022-12-18T07:45:06.620Z,12.10
2022-12-18T07:47:37.971Z,12.30
2022-12-18T07:50:06.392Z,12.40
2022-12-18T07:52:33.975Z,11.60
2022-12-18T07:55:02.106Z,12.60
2022-12-18T08:00:17.872Z,13.50
2022-12-18T08:02:45.650Z,12.70
2022-12-18T08:05:14.526Z,13.00
2022-12-18T08:07:43.577Z,12.20
2022-12-18T08:10:11.904Z,14.30
2022-12-18T08:12:39.907Z,13.50
2022-12-18T08:15:08.660Z,14.40
2022-12-18T08:17:36.616Z,12.30
2022-12-18T08:20:05.032Z,12.80
2022-12-18T08:22:34.796Z,13.60
2022-12-18T08:25:03.850Z,13.00
2022-12-18T08:27:33.189Z,13.50
2022-12-18T08:30:02.291Z,13.40
2022-12-18T08:32:30.273Z,13.30
2022-12-18T08:34:58.024Z,14.70
2022-12-18T08:37:26.101Z,14.10
2022-12-18T08:39:54.164Z,13.40
2022-12-18T08:42:40.669Z,14.60
2022-12-18T08:45:09.047Z,14.30
2022-12-18T08:47:36.813Z,12.10
2022-12-18T08:50:04.778Z,11.30
2022-12-18T08:52:33.478Z,12.40
2022-12-18T08:55:01.326Z,13.00
2022-12-18T08:57:28.992Z,15.10
2022-12-18T08:59:57.010Z,14.80
2022-12-18T09:02:24.868Z,14.40
2022-12-18T09:04:57.327Z,28.30
2022-12-18T09:07:25.673Z,18.10
2022-12-18T09:09:53.481Z,13.70
2022-12-18T09:12:22.401Z,13.60
2022-12-18T09:14:50.296Z,12.00
2022-12-18T09:17:18.089Z,12.40
2022-12-18T09:19:45.921Z,12.70
2022-12-18T09:22:13.968Z,11.30
2022-12-18T09:24:41.861Z,15.30
2022-12-18T09:27:09.806Z,13.80
2022-12-18T09:29:38.034Z,17.10
2022-12-18T09:32:06.487Z,12.90
2022-12-18T09:34:35.239Z,17.00
2022-12-18T09:37:03.219Z,14.00
2022-12-18T09:39:31.305Z,14.30
2022-12-18T09:42:00.095Z,12.90
2022-12-18T09:44:34.253Z,12.90
2022-12-18T09:47:14.498Z,12.30
2022-12-18T09:49:46.733Z,12.30
2022-12-18T09:52:17.904Z,12.70
2022-12-18T09:54:48.936Z,13.40
2022-12-18T09:57:23.443Z,15.30
2022-12-18T10:00:00.823Z,14.70
2022-12-18T10:05:00.031Z,12.80
2022-12-18T10:07:51.325Z,13.60
2022-12-18T10:10:33.035Z,14.50
2022-12-18T10:13:04.908Z,14.30
2022-12-18T10:15:56.041Z,14.90
2022-12-18T10:18:33.197Z,16.00
2022-12-18T10:21:04.816Z,16.90
2022-12-18T10:23:49.638Z,15.00
2022-12-18T10:26:18.939Z,15.10
2022-12-18T10:28:48.780Z,17.70
2022-12-18T10:31:18.654Z,16.40
2022-12-18T10:33:46.495Z,15.80
2022-12-18T10:36:14.478Z,15.10
2022-12-18T10:38:42.715Z,15.70
2022-12-18T10:41:22.172Z,16.70
2022-12-18T10:44:09.934Z,16.40
2022-12-18T10:46:38.131Z,18.80
2022-12-18T10:49:06.048Z,16.80
2022-12-18T10:51:35.526Z,18.60
2022-12-18T10:54:06.253Z,17.10
2022-12-18T10:56:37.291Z,18.20
2022-12-18T10:59:07.142Z,82.20
2022-12-18T11:01:57.985Z,30.60
2022-12-18T11:04:27.235Z,28.10
2022-12-18T11:06:57.863Z,31.60
2022-12-18T11:09:27.493Z,24.90
2022-12-18T11:12:00.295Z,21.00
2022-12-18T11:14:30.168Z,19.40
2022-12-18T11:19:53.345Z,20.30
2022-12-18T11:22:27.696Z,19.30
2022-12-18T11:25:35.663Z,19.60
2022-12-18T11:28:05.786Z,19.30
2022-12-18T11:30:34.995Z,21.60
2022-12-18T11:33:20.408Z,20.50
2022-12-18T11:36:00.524Z,21.90
2022-12-18T11:38:30.642Z,27.00
2022-12-18T11:41:01.768Z,78.70
2022-12-18T11:43:32.523Z,248.50
2022-12-18T11:46:03.837Z,152.00
2022-12-18T11:48:36.344Z,60.70
2022-12-18T11:51:06.416Z,39.20
2022-12-18T11:53:34.404Z,22.90
2022-12-18T11:56:34.940Z,23.50
2022-12-18T11:59:14.992Z,18.10
2022-12-18T12:01:50.065Z,24.00
2022-12-18T12:04:27.257Z,21.30
2022-12-18T12:07:02.891Z,22.20
2022-12-18T12:09:50.491Z,18.90
2022-12-18T12:12:49.188Z,21.50
2022-12-18T12:15:27.347Z,19.40
2022-12-18T12:17:57.972Z,18.20
2022-12-18T12:20:35.943Z,19.80
2022-12-18T12:23:10.223Z,19.70
2022-12-18T12:25:44.142Z,22.40
2022-12-18T12:28:15.069Z,19.20
2022-12-18T12:31:01.572Z,20.70
2022-12-18T12:33:45.007Z,21.20
2022-12-18T12:36:31.470Z,21.80
2022-12-18T12:39:02.210Z,16.60
2022-12-18T12:41:52.122Z,19.70
2022-12-18T12:44:29.304Z,31.00
2022-12-18T12:46:59.959Z,18.20
2022-12-18T12:49:30.052Z,18.70
2022-12-18T12:52:08.143Z,18.00
2022-12-18T12:57:05.003Z,17.60
2022-12-18T12:59:39.851Z,25.40
2022-12-18T13:02:18.250Z,31.50
2022-12-18T13:04:53.293Z,23.90
2022-12-18T13:07:26.276Z,25.70
2022-12-18T13:10:14.465Z,30.20
2022-12-18T13:12:59.793Z,45.90
2022-12-18T13:15:31.342Z,67.70
2022-12-18T13:18:09.075Z,38.90
2022-12-18T13:21:03.266Z,68.60
2022-12-18T13:23:33.974Z,44.20
2022-12-18T13:26:11.392Z,55.20
2022-12-18T13:28:49.144Z,26.30
2022-12-18T13:34:09.417Z,30.30
2022-12-18T13:36:36.109Z,26.70
2022-12-18T13:39:10.194Z,44.10
2022-12-18T13:41:38.163Z,57.70
2022-12-18T13:44:14.121Z,97.00
2022-12-18T13:46:46.495Z,28.50
2022-12-18T13:49:14.559Z,24.70
2022-12-18T13:51:43.904Z,34.60
2022-12-18T13:54:20.121Z,23.50
2022-12-18T13:56:51.408Z,19.80
2022-12-18T13:59:25.104Z,23.40
2022-12-18T14:01:53.351Z,27.20
2022-12-18T14:04:35.346Z,54.70
2022-12-18T14:07:08.143Z,31.20
2022-12-18T14:09:44.387Z,24.30
2022-12-18T14:12:38.982Z,32.10
2022-12-18T14:15:11.917Z,21.20
2022-12-18T14:17:40.645Z,18.10
2022-12-18T14:20:14.670Z,24.70
2022-12-18T14:22:49.390Z,21.80
2022-12-18T14:25:19.270Z,33.40
2022-12-18T14:28:07.302Z,26.10
2022-12-18T14:30:38.238Z,24.60
2022-12-18T14:33:09.107Z,23.20
2022-12-18T14:35:39.132Z,36.60
2022-12-18T14:38:23.869Z,18.30
2022-12-18T14:41:18.370Z,31.20
2022-12-18T14:43:47.476Z,28.50
2022-12-18T14:46:37.046Z,29.40
2022-12-18T14:49:05.625Z,23.70
2022-12-18T14:51:36.162Z,31.50
2022-12-18T14:54:10.842Z,20.70
2022-12-18T14:56:44.288Z,20.20
2022-12-18T14:59:23.762Z,23.30
2022-12-18T15:02:01.325Z,24.90
2022-12-18T15:04:38.264Z,19.50
2022-12-18T15:07:12.495Z,33.50
2022-12-18T15:09:41.418Z,40.80
2022-12-18T15:12:32.191Z,24.80
2022-12-18T15:15:00.934Z,49.60
2022-12-18T15:17:29.457Z,41.50
2022-12-18T15:20:02.338Z,34.80
2022-12-18T15:22:31.534Z,27.30
2022-12-18T15:24:59.505Z,25.40
2022-12-18T15:27:30.339Z,34.20
2022-12-18T15:30:10.920Z,24.20
2022-12-18T15:32:39.572Z,23.20
2022-12-18T15:35:18.982Z,20.80
2022-12-18T15:37:47.512Z,22.20
2022-12-18T15:40:20.188Z,23.00
2022-12-18T15:43:07.754Z,23.60
2022-12-18T15:45:35.469Z,24.70
2022-12-18T15:48:03.337Z,24.60
2022-12-18T15:50:31.506Z,23.70
2022-12-18T15:52:59.561Z,25.00
2022-12-18T15:55:45.984Z,25.80
2022-12-18T15:58:14.521Z,21.00
2022-12-18T16:00:44.378Z,20.10
2022-12-18T16:03:14.840Z,17.60
2022-12-18T16:05:42.971Z,21.80
2022-12-18T16:08:11.062Z,22.40
2022-12-18T16:10:38.908Z,19.70
2022-12-18T16:13:07.343Z,31.90
2022-12-18T16:15:35.224Z,28.90
2022-12-18T16:18:03.224Z,19.70
2022-12-18T16:20:30.981Z,19.40
2022-12-18T16:22:59.053Z,19.10
2022-12-18T16:25:28.204Z,19.70
2022-12-18T16:27:57.150Z,17.50
2022-12-18T16:30:32.768Z,22.10
2022-12-18T16:33:07.444Z,18.70
2022-12-18T16:35:38.236Z,22.80
2022-12-18T16:38:06.318Z,19.20
2022-12-18T16:40:34.026Z,22.10
2022-12-18T16:43:01.762Z,18.60
2022-12-18T16:45:34.335Z,18.70
2022-12-18T16:48:02.403Z,16.90
2022-12-18T16:50:30.253Z,19.10
2022-12-18T16:53:00.193Z,19.10
2022-12-18T16:55:28.044Z,19.40
2022-12-18T16:57:56.716Z,18.60
2022-12-18T17:00:24.822Z,20.60
2022-12-18T17:02:56.931Z,19.00
2022-12-18T17:05:25.526Z,19.80
2022-12-18T17:07:53.635Z,25.50
2022-12-18T17:10:22.026Z,19.90
2022-12-18T17:12:51.048Z,22.40
2022-12-18T17:15:18.736Z,22.90
2022-12-18T17:17:47.931Z,23.00
2022-12-18T17:20:16.006Z,22.70
2022-12-18T17:22:43.870Z,22.20
2022-12-18T17:25:11.712Z,21.40
2022-12-18T17:27:39.494Z,23.70
2022-12-18T17:30:07.875Z,23.20
2022-12-18T17:32:35.651Z,21.90
2022-12-18T17:35:07.118Z,21.50
2022-12-18T17:37:35.387Z,17.50
2022-12-18T17:40:03.380Z,22.30
2022-12-18T17:42:31.241Z,20.20
2022-12-18T17:44:58.981Z,20.40
2022-12-18T17:47:26.839Z,20.00
2022-12-18T17:49:54.839Z,21.90
2022-12-18T17:52:23.562Z,18.00
2022-12-18T17:54:51.347Z,20.10
2022-12-18T17:57:19.034Z,21.30
2022-12-18T17:59:47.208Z,20.60
2022-12-18T18:02:15.042Z,22.00
2022-12-18T18:04:43.524Z,21.00
2022-12-18T18:07:11.697Z,23.20
2022-12-18T18:09:39.764Z,21.40
2022-12-18T18:12:27.608Z,20.80
2022-12-18T18:14:56.389Z,22.20
2022-12-18T18:17:24.661Z,24.50
2022-12-18T18:19:52.439Z,23.10
2022-12-18T18:22:20.390Z,25.70
2022-12-18T18:24:48.363Z,22.60
2022-12-18T18:27:16.532Z,27.20
2022-12-18T18:29:44.607Z,23.80
2022-12-18T18:32:12.670Z,22.40
2022-12-18T18:34:40.353Z,24.20
2022-12-18T18:37:09.323Z,23.50
2022-12-18T18:39:37.636Z,22.30
2022-12-18T18:42:05.772Z,22.70
2022-12-18T18:44:34.373Z,23.70
2022-12-18T18:47:02.429Z,24.80
2022-12-18T18:49:32.344Z,27.40
2022-12-18T18:52:00.715Z,25.90
2022-12-18T18:54:29.603Z,27.80
2022-12-18T18:57:20.115Z,27.30
2022-12-18T18:59:46.336Z,25.40
2022-12-18T19:02:15.056Z,19.70
2022-12-18T19:04:45.975Z,29.70
2022-12-18T19:07:26.165Z,30.20
2022-12-18T19:10:04.240Z,28.60
2022-12-18T19:12:53.351Z,27.70
2022-12-18T19:15:22.218Z,29.80
2022-12-18T19:17:51.056Z,27.90
2022-12-18T19:20:20.365Z,30.10
2022-12-18T19:22:55.769Z,31.40
2022-12-18T19:25:38.307Z,29.70
2022-12-18T19:28:21.243Z,31.50
2022-12-18T19:30:52.485Z,30.20
2022-12-18T19:33:42.425Z,25.10
2022-12-18T19:36:14.163Z,31.00
2022-12-18T19:38:45.243Z,33.00
2022-12-18T19:41:15.977Z,31.10
2022-12-18T19:43:45.567Z,32.40
2022-12-18T19:46:15.508Z,34.30
2022-12-18T19:48:44.619Z,31.50
2022-12-18T19:51:19.796Z,33.70
2022-12-18T19:53:48.784Z,33.20
2022-12-18T19:56:19.862Z,34.10
2022-12-18T19:58:48.958Z,25.80
2022-12-18T20:01:18.840Z,36.70
2022-12-18T20:03:51.540Z,36.40
2022-12-18T20:06:25.257Z,33.90
2022-12-18T20:08:54.619Z,33.60
2022-12-18T20:11:33.684Z,32.70
2022-12-18T20:14:07.589Z,36.00
2022-12-18T20:16:37.424Z,34.10
2022-12-18T20:19:07.537Z,36.20
2022-12-18T20:21:36.528Z,34.30
2022-12-18T20:24:04.996Z,33.40
2022-12-18T20:26:33.485Z,36.90
2022-12-18T20:29:03.192Z,33.30
2022-12-18T20:31:32.169Z,33.40
2022-12-18T20:34:02.773Z,35.50
2022-12-18T20:36:32.960Z,33.70
2022-12-18T20:39:06.405Z,34.50
2022-12-18T20:41:38.147Z,36.10
2022-12-18T20:44:23.219Z,28.20
2022-12-18T20:46:54.112Z,34.60
2022-12-18T20:49:25.461Z,36.00
2022-12-18T20:51:56.616Z,32.10
2022-12-18T20:54:25.952Z,38.10
2022-12-18T20:56:54.664Z,30.60
2022-12-18T20:59:25.364Z,32.70
2022-12-18T21:01:53.878Z,32.30
2022-12-18T21:04:24.125Z,31.70
2022-12-18T21:06:59.119Z,33.10
2022-12-18T21:09:37.415Z,33.00
2022-12-18T21:12:33.432Z,33.60
2022-12-18T21:15:08.876Z,31.00
2022-12-18T21:17:41.728Z,28.00
2022-12-18T21:20:17.881Z,28.30
2022-12-18T21:22:49.192Z,27.90
2022-12-18T21:25:17.454Z,28.80
2022-12-18T21:27:45.153Z,31.00
2022-12-18T21:30:15.080Z,25.90
2022-12-18T21:32:43.290Z,28.70
2022-12-18T21:35:11.288Z,27.70
2022-12-18T21:37:41.765Z,31.90
2022-12-18T21:40:09.995Z,30.10
2022-12-18T21:42:57.388Z,28.70
2022-12-18T21:45:25.263Z,27.30
2022-12-18T21:47:53.335Z,31.90
2022-12-18T21:50:21.283Z,26.30
2022-12-18T21:52:49.269Z,30.40
2022-12-18T21:55:20.627Z,29.60
2022-12-18T21:57:50.325Z,28.40
2022-12-18T22:00:19.655Z,28.80
2022-12-18T22:03:08.705Z,29.00
2022-12-18T22:05:37.369Z,28.40
2022-12-18T22:08:07.024Z,27.00
2022-12-18T22:10:35.358Z,26.40
2022-12-18T22:13:04.038Z,29.50
2022-12-18T22:15:31.956Z,28.00
2022-12-18T22:18:00.748Z,25.80
2022-12-18T22:20:29.815Z,32.80
2022-12-18T22:22:58.779Z,29.00
2022-12-18T22:25:29.022Z,25.40
2022-12-18T22:28:15.750Z,29.40
2022-12-18T22:30:44.204Z,27.10
2022-12-18T22:33:12.358Z,28.70
2022-12-18T22:35:40.131Z,25.80
2022-12-18T22:38:08.001Z,26.70
2022-12-18T22:40:35.854Z,26.50
2022-12-18T22:43:03.718Z,29.10
2022-12-18T22:45:31.562Z,28.70
2022-12-18T22:48:01.697Z,26.80
2022-12-18T22:50:29.995Z,25.90
2022-12-18T22:52:57.689Z,28.60
2022-12-18T22:55:25.422Z,20.70
2022-12-18T22:57:53.492Z,29.20
2022-12-18T23:00:24.609Z,25.60
2022-12-18T23:02:59.778Z,26.60
2022-12-18T23:05:31.825Z,28.20
2022-12-18T23:07:59.688Z,27.60
2022-12-18T23:10:28.594Z,26.10
2022-12-18T23:12:59.256Z,28.20
2022-12-18T23:15:28.716Z,30.60
2022-12-18T23:17:57.907Z,27.50
2022-12-18T23:20:26.856Z,26.10
2022-12-18T23:22:54.556Z,28.70
2022-12-18T23:25:22.314Z,29.00
2022-12-18T23:27:49.991Z,28.30
2022-12-18T23:30:17.843Z,27.00
2022-12-18T23:32:45.503Z,26.90
2022-12-18T23:35:13.319Z,26.60
2022-12-18T23:38:00.461Z,27.10
2022-12-18T23:40:30.141Z,28.80
2022-12-18T23:42:58.802Z,21.60
2022-12-18T23:45:26.844Z,25.40
2022-12-18T23:47:54.762Z,29.00
2022-12-18T23:50:28.786Z,30.90
2022-12-18T23:53:00.721Z,30.40
2022-12-18T23:55:38.593Z,30.90
2022-12-18T23:58:06.961Z,32.90
